Terminal Aerodrome Forecast
Issued by NWS Cleveland, OH

Home | Current Version | Previous Version | Graphics & Text | Print | Product List | Glossary On
Versions: 1 2 3 4 5 6 7 8 9 10 11 12 13 14 15 16 17 18 19 20 21
000
FTUS41 KCLE 261528 AAA
TAFYNG
TAF AMD
KYNG 261528Z 2615/2712 26012G18KT P6SM BKN012 OVC025
     FM261800 33014G22KT 2SM BR OVC004
     FM262200 36012G18KT 5SM BR OVC008
     FM270100 03010KT P6SM OVC010=

USA.gov is the U.S. government's official web portal to all federal, state and local government web resources and services.